Time;durP1;ratioP1;P1;durP2;ratioP2;P2;SDS_P1;SDS_P2;PMS_P1;PMS_P2;Temp;Humidity;BMP_temperature;BMP_pressure;BME280_temperature;BME280_humidity;BME280_pressure;Samples;Min_cycle;Max_cycle;Signal;HPM_P1;HPM_P2
2023/04/22 00:00:02;;;;;;;;;21.75;20.00;;;;;;;;5092789;27;62294;-75
2023/04/22 00:02:28;;;;;;;;;20.00;17.00;;;;;;;;5111241;27;61928;-75
2023/04/22 00:04:53;;;;;;;;;28.50;18.75;;;;;;;;5093769;27;61843;-75
2023/04/22 00:07:18;;;;;;;;;28.50;21.50;;;;;;;;5084058;27;61994;-75
2023/04/22 00:09:44;;;;;;;;;24.25;17.50;;;;;;;;5090237;27;62018;-75
2023/04/22 00:12:13;;;;;;;;;23.00;17.50;;;;;;;;5092004;27;62265;-76
2023/04/22 00:14:38;;;;;;;;;24.00;19.25;;;;;;;;5113247;27;62083;-75
2023/04/22 00:17:03;;;;;;;;;23.00;18.50;;;;;;;;5099438;27;62126;-75
2023/04/22 00:19:29;;;;;;;;;26.75;17.75;;;;;;;;5103219;27;61930;-75
2023/04/22 00:21:54;;;;;;;;;33.00;22.50;;;;;;;;5101905;27;62493;-75
2023/04/22 00:24:20;;;;;;;;;21.00;18.50;;;;;;;;5114117;27;61782;-75
2023/04/22 00:26:45;;;;;;;;;25.75;20.00;;;;;;;;5089122;27;63353;-75
2023/04/22 00:29:10;;;;;;;;;26.00;18.00;;;;;;;;5102946;27;61941;-75
2023/04/22 00:31:36;;;;;;;;;20.50;19.50;;;;;;;;5094766;27;61802;-75
2023/04/22 00:34:01;;;;;;;;;25.50;19.75;;;;;;;;5103885;27;61969;-75
2023/04/22 00:36:26;;;;;;;;;21.50;18.75;;;;;;;;5086555;27;62342;-75
2023/04/22 00:38:52;;;;;;;;;20.50;18.25;;;;;;;;5102838;27;62051;-75
2023/04/22 00:41:17;;;;;;;;;29.25;21.75;;;;;;;;5103253;27;61888;-75
2023/04/22 00:43:42;;;;;;;;;20.00;17.25;;;;;;;;5103008;27;61896;-76
2023/04/22 00:46:08;;;;;;;;;19.75;16.25;;;;;;;;5101624;27;62581;-75
2023/04/22 00:48:34;;;;;;;;;19.75;15.25;;;;;;;;5099441;27;61892;-75
2023/04/22 00:50:59;;;;;;;;;18.75;17.25;;;;;;;;5100077;27;61976;-75
2023/04/22 00:53:25;;;;;;;;;17.25;15.25;;;;;;;;5092003;27;61878;-75
2023/04/22 00:55:50;;;;;;;;;28.50;20.50;;;;;;;;5111034;27;61868;-75
2023/04/22 00:58:16;;;;;;;;;29.25;21.75;;;;;;;;5095872;27;62111;-75
2023/04/22 01:00:42;;;;;;;;;29.00;25.25;;;;;;;;5092003;27;61956;-75
2023/04/22 01:03:07;;;;;;;;;23.25;22.75;;;;;;;;5108131;27;62132;-76
2023/04/22 01:05:33;;;;;;;;;22.75;21.75;;;;;;;;5097029;27;61860;-75
2023/04/22 01:07:58;;;;;;;;;28.00;23.75;;;;;;;;5084190;27;61810;-75
2023/04/22 01:10:24;;;;;;;;;30.25;21.00;;;;;;;;5101069;27;62312;-75
2023/04/22 01:12:49;;;;;;;;;23.25;20.25;;;;;;;;5102800;27;61720;-75
2023/04/22 01:15:14;;;;;;;;;23.50;23.00;;;;;;;;5103275;27;62084;-75
2023/04/22 01:17:40;;;;;;;;;34.75;25.25;;;;;;;;5102594;27;61879;-75
2023/04/22 01:20:08;;;;;;;;;25.25;21.75;;;;;;;;5100132;27;62043;-75
2023/04/22 01:22:35;;;;;;;;;28.75;22.50;;;;;;;;5103488;27;61918;-75
2023/04/22 01:25:01;;;;;;;;;32.75;23.75;;;;;;;;5106335;27;63692;-75
2023/04/22 01:27:26;;;;;;;;;36.25;22.25;;;;;;;;5103357;27;61786;-75
2023/04/22 01:29:52;;;;;;;;;34.50;28.75;;;;;;;;5101184;27;61881;-75
2023/04/22 01:32:18;;;;;;;;;30.00;27.50;;;;;;;;5102804;27;61751;-75
2023/04/22 01:34:43;;;;;;;;;30.50;23.75;;;;;;;;5096911;27;62852;-75
2023/04/22 01:37:08;;;;;;;;;26.50;21.75;;;;;;;;5103296;27;62001;-75
2023/04/22 01:39:34;;;;;;;;;26.75;23.25;;;;;;;;5100349;27;61874;-75
2023/04/22 01:42:01;;;;;;;;;32.75;21.75;;;;;;;;5101804;27;61706;-75
2023/04/22 01:44:26;;;;;;;;;26.25;20.00;;;;;;;;5093001;27;62639;-76
2023/04/22 01:46:51;;;;;;;;;24.25;20.75;;;;;;;;5102971;27;61976;-75
2023/04/22 01:49:16;;;;;;;;;19.00;17.75;;;;;;;;5101554;27;61852;-75
2023/04/22 01:51:42;;;;;;;;;24.50;21.50;;;;;;;;5102857;27;62203;-75
2023/04/22 01:54:08;;;;;;;;;23.50;18.25;;;;;;;;5100652;27;62646;-75
2023/04/22 01:56:34;;;;;;;;;24.50;19.50;;;;;;;;5103058;27;62257;-75
2023/04/22 01:58:59;;;;;;;;;27.75;20.50;;;;;;;;5100256;27;61740;-75
2023/04/22 02:01:24;;;;;;;;;30.50;24.50;;;;;;;;5104635;27;61763;-75
2023/04/22 02:03:50;;;;;;;;;36.50;31.00;;;;;;;;5087545;27;61810;-75
2023/04/22 02:06:15;;;;;;;;;31.50;23.25;;;;;;;;5101665;27;61940;-75
2023/04/22 02:08:40;;;;;;;;;19.25;15.50;;;;;;;;5099814;27;61826;-77
2023/04/22 02:11:05;;;;;;;;;19.25;18.25;;;;;;;;5101812;27;61853;-75
2023/04/22 02:13:38;;;;;;;;;21.75;18.50;;;;;;;;5100180;27;63437;-75
2023/04/22 02:16:04;;;;;;;;;25.00;19.50;;;;;;;;5101150;27;61737;-75
2023/04/22 02:18:29;;;;;;;;;25.00;18.00;;;;;;;;5102104;27;62058;-75
2023/04/22 02:20:54;;;;;;;;;25.25;19.00;;;;;;;;5102773;27;61812;-75
2023/04/22 02:23:20;;;;;;;;;21.50;17.25;;;;;;;;5094508;27;61725;-75
2023/04/22 02:25:49;;;;;;;;;20.50;18.50;;;;;;;;5100957;27;61931;-75
2023/04/22 02:28:14;;;;;;;;;19.00;16.75;;;;;;;;5100305;27;61924;-74
2023/04/22 02:30:41;;;;;;;;;22.25;20.75;;;;;;;;5101260;27;62066;-75
2023/04/22 02:33:06;;;;;;;;;29.25;23.00;;;;;;;;5108514;27;63149;-75
2023/04/22 02:35:31;;;;;;;;;18.50;17.25;;;;;;;;5103115;27;61660;-75
2023/04/22 02:37:56;;;;;;;;;29.50;22.50;;;;;;;;5102549;27;61892;-75
2023/04/22 02:40:22;;;;;;;;;23.25;20.50;;;;;;;;5103003;27;61898;-75
2023/04/22 02:42:47;;;;;;;;;18.50;17.50;;;;;;;;5102556;27;62744;-75
2023/04/22 02:45:12;;;;;;;;;21.00;17.50;;;;;;;;5100538;27;61987;-75
2023/04/22 02:47:38;;;;;;;;;15.75;14.00;;;;;;;;5100137;27;61790;-74
2023/04/22 02:50:03;;;;;;;;;24.75;21.00;;;;;;;;5102088;27;61736;-74
2023/04/22 02:52:28;;;;;;;;;17.75;17.75;;;;;;;;5097812;27;62755;-74
2023/04/22 02:54:54;;;;;;;;;20.75;16.25;;;;;;;;5094177;27;61726;-75
2023/04/22 02:57:19;;;;;;;;;40.50;30.75;;;;;;;;5087016;27;61900;-75
2023/04/22 02:59:45;;;;;;;;;22.50;18.75;;;;;;;;5106323;27;62273;-75
2023/04/22 03:02:15;;;;;;;;;33.25;24.00;;;;;;;;5097565;27;61924;-75
2023/04/22 03:04:40;;;;;;;;;26.00;22.00;;;;;;;;5091840;27;61870;-75
2023/04/22 03:07:05;;;;;;;;;27.50;21.50;;;;;;;;5098758;27;61713;-75
2023/04/22 03:09:30;;;;;;;;;33.25;28.00;;;;;;;;5088778;27;62357;-75
2023/04/22 03:11:56;;;;;;;;;28.25;23.00;;;;;;;;5099706;27;64657;-75
2023/04/22 03:14:21;;;;;;;;;27.25;21.75;;;;;;;;5096354;27;61938;-75
2023/04/22 03:16:46;;;;;;;;;34.25;24.50;;;;;;;;5100550;27;61794;-75
2023/04/22 03:19:11;;;;;;;;;31.50;27.00;;;;;;;;5098496;27;61813;-75
2023/04/22 03:21:37;;;;;;;;;41.50;33.75;;;;;;;;5101408;27;62435;-75
2023/04/22 03:24:02;;;;;;;;;27.00;24.25;;;;;;;;5096986;27;62234;-74
2023/04/22 03:26:27;;;;;;;;;27.75;24.25;;;;;;;;5101598;27;61848;-75
2023/04/22 03:28:52;;;;;;;;;25.75;19.75;;;;;;;;5099373;27;62147;-75
2023/04/22 03:31:18;;;;;;;;;35.75;26.25;;;;;;;;5096511;27;61927;-74
2023/04/22 03:33:43;;;;;;;;;34.75;25.25;;;;;;;;5098630;27;61999;-75
2023/04/22 03:36:08;;;;;;;;;40.00;32.50;;;;;;;;5082730;27;62028;-75
2023/04/22 03:38:33;;;;;;;;;36.00;27.00;;;;;;;;5099713;27;61853;-75
2023/04/22 03:40:59;;;;;;;;;36.75;25.50;;;;;;;;5101113;27;61885;-75
2023/04/22 03:43:24;;;;;;;;;30.75;27.50;;;;;;;;5090790;27;62060;-75
2023/04/22 03:45:50;;;;;;;;;26.25;25.50;;;;;;;;5096912;27;61761;-75
2023/04/22 03:48:15;;;;;;;;;25.75;24.25;;;;;;;;5088186;27;61992;-75
2023/04/22 03:50:40;;;;;;;;;26.75;18.50;;;;;;;;5091142;27;61964;-75
2023/04/22 03:53:06;;;;;;;;;32.00;26.00;;;;;;;;5104903;27;61921;-75
2023/04/22 03:55:31;;;;;;;;;21.25;20.25;;;;;;;;5107255;27;61885;-75
2023/04/22 03:57:57;;;;;;;;;31.75;22.75;;;;;;;;5100620;27;62017;-74
2023/04/22 04:00:22;;;;;;;;;27.00;22.25;;;;;;;;5099893;27;62114;-75
2023/04/22 04:02:47;;;;;;;;;34.00;29.00;;;;;;;;5105469;27;61880;-75
2023/04/22 04:05:13;;;;;;;;;30.00;22.75;;;;;;;;5087896;27;61818;-75
2023/04/22 04:07:38;;;;;;;;;29.75;24.50;;;;;;;;5104468;27;62260;-75
2023/04/22 04:10:03;;;;;;;;;30.50;27.50;;;;;;;;5103236;27;61719;-75
2023/04/22 04:12:29;;;;;;;;;3.00;0.00;;;;;;;;5103679;27;61885;-75
2023/04/22 04:14:54;;;;;;;;;27.00;22.50;;;;;;;;5108222;27;62611;-75
2023/04/22 04:17:20;;;;;;;;;22.00;18.25;;;;;;;;5098996;27;61716;-75
2023/04/22 04:19:45;;;;;;;;;24.50;22.25;;;;;;;;5102834;27;61908;-75
2023/04/22 04:22:11;;;;;;;;;27.00;22.00;;;;;;;;5099843;27;62083;-75
2023/04/22 04:24:40;;;;;;;;;29.25;23.75;;;;;;;;5090405;27;61847;-75
2023/04/22 04:27:06;;;;;;;;;29.75;24.00;;;;;;;;5108780;27;62237;-75
2023/04/22 04:29:31;;;;;;;;;33.00;26.00;;;;;;;;5107587;27;62106;-75
2023/04/22 04:31:56;;;;;;;;;32.00;25.25;;;;;;;;5096958;27;62341;-75
2023/04/22 04:34:22;;;;;;;;;28.50;21.75;;;;;;;;5089515;27;62095;-75
2023/04/22 04:36:47;;;;;;;;;39.00;27.25;;;;;;;;5099077;27;62254;-75
2023/04/22 04:39:16;;;;;;;;;29.50;25.00;;;;;;;;5102365;27;62720;-75
2023/04/22 04:41:41;;;;;;;;;31.00;24.75;;;;;;;;5102212;27;62244;-75
2023/04/22 04:44:06;;;;;;;;;29.50;20.50;;;;;;;;5091468;27;61936;-75
2023/04/22 04:46:33;;;;;;;;;26.75;25.50;;;;;;;;5096961;27;62166;-75
2023/04/22 04:48:58;;;;;;;;;27.00;26.25;;;;;;;;5091714;27;61964;-75
2023/04/22 04:51:24;;;;;;;;;28.00;25.25;;;;;;;;5103424;27;61794;-75
2023/04/22 04:53:49;;;;;;;;;25.75;21.25;;;;;;;;5102051;27;62579;-75
2023/04/22 04:56:15;;;;;;;;;32.00;24.00;;;;;;;;5104307;27;61707;-75
2023/04/22 04:58:40;;;;;;;;;26.50;22.25;;;;;;;;5099595;27;63573;-75
2023/04/22 05:01:06;;;;;;;;;32.50;22.75;;;;;;;;5100881;27;61794;-75
2023/04/22 05:03:31;;;;;;;;;26.75;22.00;;;;;;;;5103620;27;61704;-75
2023/04/22 05:05:56;;;;;;;;;26.75;24.25;;;;;;;;5101783;27;61843;-76
2023/04/22 05:08:22;;;;;;;;;28.00;24.00;;;;;;;;5102710;27;62620;-76
2023/04/22 05:10:47;;;;;;;;;29.25;26.25;;;;;;;;5102775;27;61732;-76
2023/04/22 05:13:12;;;;;;;;;35.00;30.00;;;;;;;;5094147;27;61841;-76
2023/04/22 05:15:37;;;;;;;;;29.00;22.25;;;;;;;;5107068;27;61956;-76
2023/04/22 05:18:03;;;;;;;;;30.50;25.50;;;;;;;;5082707;28;62697;-75
2023/04/22 05:20:28;;;;;;;;;26.75;21.75;;;;;;;;5100206;27;62045;-75
2023/04/22 05:22:53;;;;;;;;;34.00;26.75;;;;;;;;5119952;27;62242;-75
2023/04/22 05:25:19;;;;;;;;;30.25;22.50;;;;;;;;5113941;27;62090;-75
2023/04/22 05:27:44;;;;;;;;;32.00;26.75;;;;;;;;5102361;27;62787;-76
2023/04/22 05:30:09;;;;;;;;;30.25;25.00;;;;;;;;5100488;27;61958;-75
2023/04/22 05:32:35;;;;;;;;;38.00;30.50;;;;;;;;5101008;27;61780;-75
2023/04/22 05:35:00;;;;;;;;;30.75;22.00;;;;;;;;5100778;27;62111;-75
2023/04/22 05:37:25;;;;;;;;;30.00;25.75;;;;;;;;5102529;27;62678;-75
2023/04/22 05:39:50;;;;;;;;;28.50;21.75;;;;;;;;5103052;27;61910;-75
2023/04/22 05:42:16;;;;;;;;;30.75;28.50;;;;;;;;5100929;27;61741;-75
2023/04/22 05:44:41;;;;;;;;;31.25;25.25;;;;;;;;5102280;27;61814;-79
2023/04/22 05:47:06;;;;;;;;;29.50;23.50;;;;;;;;5101123;27;63415;-76
2023/04/22 05:49:31;;;;;;;;;34.50;25.25;;;;;;;;5100050;27;62184;-78
2023/04/22 05:51:57;;;;;;;;;36.50;27.50;;;;;;;;5102942;27;62049;-78
2023/04/22 05:54:22;;;;;;;;;37.75;29.00;;;;;;;;5102932;27;61725;-78
2023/04/22 05:56:47;;;;;;;;;32.25;24.50;;;;;;;;5096771;27;63480;-79
2023/04/22 05:59:13;;;;;;;;;31.00;30.25;;;;;;;;5118878;27;61922;-78
2023/04/22 06:01:38;;;;;;;;;29.50;25.50;;;;;;;;5102633;27;61976;-78
2023/04/22 06:04:06;;;;;;;;;33.75;27.75;;;;;;;;5103416;27;61750;-78
2023/04/22 06:06:31;;;;;;;;;31.00;21.25;;;;;;;;5099546;27;61837;-78
2023/04/22 06:08:57;;;;;;;;;33.50;26.00;;;;;;;;5112781;27;61734;-78
2023/04/22 06:11:22;;;;;;;;;36.75;27.50;;;;;;;;5099644;27;61867;-78
2023/04/22 06:13:48;;;;;;;;;32.00;24.00;;;;;;;;5090949;27;61840;-79
2023/04/22 06:16:13;;;;;;;;;33.50;28.50;;;;;;;;5098862;27;62758;-79
2023/04/22 06:18:38;;;;;;;;;36.25;29.00;;;;;;;;5109395;27;62116;-74
2023/04/22 06:21:04;;;;;;;;;41.25;29.00;;;;;;;;5099550;27;62246;-77
2023/04/22 06:23:29;;;;;;;;;36.50;30.25;;;;;;;;5095993;27;61809;-77
2023/04/22 06:25:54;;;;;;;;;32.75;28.50;;;;;;;;5099561;27;62832;-78
2023/04/22 06:28:19;;;;;;;;;32.00;26.75;;;;;;;;5097389;27;61869;-77
2023/04/22 06:30:45;;;;;;;;;41.75;36.00;;;;;;;;5104158;27;61893;-77
2023/04/22 06:33:10;;;;;;;;;31.50;26.25;;;;;;;;5096461;27;62308;-77
2023/04/22 06:35:35;;;;;;;;;29.50;25.00;;;;;;;;5101613;27;62611;-77
2023/04/22 06:38:00;;;;;;;;;37.00;31.50;;;;;;;;5100382;27;61901;-78
2023/04/22 06:40:26;;;;;;;;;42.00;34.25;;;;;;;;5100928;27;61968;-77
2023/04/22 06:42:51;;;;;;;;;52.00;40.00;;;;;;;;5096265;27;62181;-77
2023/04/22 06:45:16;;;;;;;;;52.75;39.25;;;;;;;;5099210;27;61951;-74
2023/04/22 06:47:41;;;;;;;;;53.75;38.75;;;;;;;;5100652;27;61955;-79
2023/04/22 06:50:07;;;;;;;;;73.75;54.75;;;;;;;;5101227;27;61740;-76
2023/04/22 06:52:33;;;;;;;;;75.75;56.50;;;;;;;;5100165;27;61873;-74
2023/04/22 06:54:58;;;;;;;;;64.25;46.75;;;;;;;;5099326;27;62040;-82
2023/04/22 06:57:23;;;;;;;;;67.25;51.00;;;;;;;;5112502;27;61900;-78
2023/04/22 06:59:49;;;;;;;;;58.00;43.00;;;;;;;;5106924;27;61825;-81
2023/04/22 07:02:14;;;;;;;;;64.50;47.00;;;;;;;;5101801;27;61810;-80
2023/04/22 07:04:39;;;;;;;;;74.00;53.00;;;;;;;;5100070;27;63644;-77
2023/04/22 07:07:05;;;;;;;;;67.50;46.00;;;;;;;;5108904;27;61704;-78
2023/04/22 07:09:30;;;;;;;;;57.00;42.00;;;;;;;;5098415;27;62008;-76
2023/04/22 07:11:56;;;;;;;;;37.25;32.50;;;;;;;;5096415;27;62107;-75
2023/04/22 07:14:24;;;;;;;;;41.25;31.00;;;;;;;;5093756;27;62738;-77
2023/04/22 07:16:49;;;;;;;;;30.00;27.75;;;;;;;;5100352;27;61675;-72
2023/04/22 07:19:15;;;;;;;;;38.00;34.00;;;;;;;;5102549;27;61624;-75
2023/04/22 07:21:40;;;;;;;;;61.25;43.75;;;;;;;;5098024;27;61860;-71
2023/04/22 07:24:05;;;;;;;;;66.25;51.25;;;;;;;;5098650;27;62635;-73
2023/04/22 07:26:33;;;;;;;;;52.25;37.50;;;;;;;;5101584;27;61793;-73
2023/04/22 07:28:58;;;;;;;;;42.75;32.25;;;;;;;;5094814;27;61967;-72
2023/04/22 07:31:23;;;;;;;;;37.25;31.50;;;;;;;;5099900;27;62007;-72
2023/04/22 07:33:48;;;;;;;;;29.75;27.00;;;;;;;;5098710;27;61889;-74
2023/04/22 07:36:14;;;;;;;;;36.75;29.50;;;;;;;;5092673;27;61916;-74
2023/04/22 07:38:39;;;;;;;;;28.00;25.50;;;;;;;;5102736;27;62151;-74
2023/04/22 07:41:05;;;;;;;;;28.50;26.00;;;;;;;;5107754;27;61899;-82
2023/04/22 07:43:31;;;;;;;;;38.00;25.25;;;;;;;;5094375;27;63890;-77
2023/04/22 07:45:56;;;;;;;;;30.25;26.75;;;;;;;;5093134;27;62249;-77
2023/04/22 07:48:21;;;;;;;;;30.75;23.50;;;;;;;;5105314;27;62049;-77
2023/04/22 07:50:47;;;;;;;;;29.25;25.25;;;;;;;;5101916;27;61968;-77
2023/04/22 07:53:14;;;;;;;;;30.50;25.25;;;;;;;;5095307;27;62916;-77
2023/04/22 07:55:39;;;;;;;;;28.75;23.50;;;;;;;;5096603;27;61868;-77
2023/04/22 07:58:05;;;;;;;;;34.50;29.25;;;;;;;;5098581;27;61911;-75
2023/04/22 08:00:34;;;;;;;;;37.25;26.00;;;;;;;;5088803;27;62344;-76
2023/04/22 08:03:00;;;;;;;;;33.50;30.25;;;;;;;;5097895;27;62159;-76
2023/04/22 08:05:25;;;;;;;;;31.50;28.00;;;;;;;;5097887;27;61991;-77
2023/04/22 08:07:51;;;;;;;;;31.25;24.75;;;;;;;;5101615;27;62018;-75
2023/04/22 08:10:16;;;;;;;;;33.25;25.75;;;;;;;;5101593;27;62082;-74
2023/04/22 08:12:41;;;;;;;;;38.00;28.50;;;;;;;;5095873;27;62019;-76
2023/04/22 08:15:07;;;;;;;;;33.25;24.75;;;;;;;;5102101;27;61763;-75
2023/04/22 08:17:32;;;;;;;;;33.00;24.50;;;;;;;;5103020;27;62054;-77
2023/04/22 08:19:57;;;;;;;;;38.25;29.75;;;;;;;;5101029;27;62044;-76
2023/04/22 08:22:24;;;;;;;;;33.25;25.75;;;;;;;;5096042;27;61839;-76
2023/04/22 08:24:49;;;;;;;;;34.75;25.50;;;;;;;;5102931;27;61764;-78
2023/04/22 08:27:14;;;;;;;;;29.25;25.50;;;;;;;;5103583;27;61868;-77
2023/04/22 08:29:40;;;;;;;;;27.75;23.00;;;;;;;;5102467;27;61743;-77
2023/04/22 08:32:05;;;;;;;;;28.50;24.75;;;;;;;;5094474;27;63378;-77
2023/04/22 08:34:30;;;;;;;;;36.50;27.00;;;;;;;;5101908;27;62320;-78
2023/04/22 08:36:56;;;;;;;;;32.00;29.50;;;;;;;;5091700;27;61922;-78
2023/04/22 08:39:21;;;;;;;;;32.25;28.00;;;;;;;;5099297;27;61691;-77
2023/04/22 08:41:48;;;;;;;;;38.00;31.25;;;;;;;;5100909;27;64354;-77
2023/04/22 08:44:32;;;;;;;;;41.75;35.00;;;;;;;;5101809;27;61997;-79
2023/04/22 08:46:57;;;;;;;;;48.00;38.00;;;;;;;;5097877;27;62148;-78
2023/04/22 08:49:24;;;;;;;;;51.25;38.75;;;;;;;;5105830;27;62112;-75
2023/04/22 08:51:49;;;;;;;;;49.50;37.00;;;;;;;;5091522;27;63763;-80
2023/04/22 08:54:15;;;;;;;;;44.50;35.00;;;;;;;;5102247;27;62156;-80
2023/04/22 08:56:42;;;;;;;;;48.75;35.25;;;;;;;;5094273;27;62169;-81
2023/04/22 08:59:12;;;;;;;;;50.25;37.50;;;;;;;;5129316;27;62196;-80
2023/04/22 09:01:42;;;;;;;;;47.75;35.00;;;;;;;;5100093;27;62313;-73
2023/04/22 09:04:13;;;;;;;;;46.75;35.00;;;;;;;;5096208;27;61883;-78
2023/04/22 09:06:40;;;;;;;;;51.75;37.00;;;;;;;;5093563;27;62503;-80
2023/04/22 09:09:13;;;;;;;;;45.75;32.75;;;;;;;;5097289;27;61904;-80
2023/04/22 09:11:39;;;;;;;;;42.00;36.50;;;;;;;;5087855;27;62651;-75
2023/04/22 09:14:05;;;;;;;;;52.75;36.50;;;;;;;;5093308;27;62008;-76
2023/04/22 09:16:41;;;;;;;;;38.25;29.50;;;;;;;;5093480;27;62123;-75
2023/04/22 09:19:10;;;;;;;;;41.25;34.75;;;;;;;;5098342;27;61872;-75
2023/04/22 09:21:39;;;;;;;;;49.75;38.50;;;;;;;;5100998;27;61903;-75
2023/04/22 09:24:07;;;;;;;;;51.00;39.25;;;;;;;;5099035;27;62487;-76
2023/04/22 09:26:38;;;;;;;;;52.75;37.00;;;;;;;;5098475;27;61928;-78
2023/04/22 09:29:08;;;;;;;;;46.50;36.50;;;;;;;;5098960;27;62628;-77
2023/04/22 09:31:34;;;;;;;;;41.75;31.75;;;;;;;;5101149;27;62698;-76
2023/04/22 09:34:00;;;;;;;;;43.25;36.00;;;;;;;;5097883;27;61866;-76
2023/04/22 09:36:26;;;;;;;;;49.00;34.75;;;;;;;;5101804;27;61961;-76
2023/04/22 09:38:53;;;;;;;;;48.50;37.75;;;;;;;;5090297;27;61925;-76
2023/04/22 09:41:25;;;;;;;;;52.75;37.25;;;;;;;;5093646;27;63181;-76
2023/04/22 09:43:50;;;;;;;;;42.75;33.25;;;;;;;;5100703;27;62031;-76
2023/04/22 09:46:16;;;;;;;;;51.25;37.75;;;;;;;;5097817;27;61771;-76
2023/04/22 09:48:42;;;;;;;;;37.50;33.75;;;;;;;;5101839;27;61678;-76
2023/04/22 09:51:15;;;;;;;;;51.75;39.25;;;;;;;;5090904;27;62204;-78
2023/04/22 09:53:40;;;;;;;;;45.25;36.00;;;;;;;;5096607;27;62073;-76
2023/04/22 09:56:06;;;;;;;;;42.25;35.25;;;;;;;;5099656;27;61951;-77
2023/04/22 09:58:32;;;;;;;;;51.25;38.25;;;;;;;;5101156;27;61801;-77
2023/04/22 10:00:58;;;;;;;;;42.25;34.00;;;;;;;;5096180;27;61847;-77
2023/04/22 10:03:27;;;;;;;;;39.50;33.25;;;;;;;;5097240;27;61974;-79
2023/04/22 10:05:52;;;;;;;;;37.75;32.50;;;;;;;;5095602;27;61960;-81
2023/04/22 10:08:17;;;;;;;;;46.25;35.25;;;;;;;;5096928;27;62356;-78
2023/04/22 10:10:43;;;;;;;;;37.50;31.75;;;;;;;;5094875;27;61836;-78
2023/04/22 10:13:09;;;;;;;;;39.00;31.50;;;;;;;;5095369;27;62443;-76
2023/04/22 10:15:42;;;;;;;;;41.25;31.75;;;;;;;;5083974;27;62040;-82
2023/04/22 10:18:12;;;;;;;;;34.25;30.50;;;;;;;;5092623;27;61933;-81
2023/04/22 10:20:39;;;;;;;;;38.75;28.25;;;;;;;;5097684;27;62833;-80
2023/04/22 10:23:05;;;;;;;;;44.50;32.00;;;;;;;;5097679;27;63109;-78
2023/04/22 10:25:38;;;;;;;;;32.00;28.50;;;;;;;;5095967;27;63327;-88
2023/04/22 10:28:07;;;;;;;;;35.25;26.50;;;;;;;;5095995;27;61758;-79
2023/04/22 10:30:34;;;;;;;;;28.25;25.00;;;;;;;;5095429;27;61970;-81
2023/04/22 10:33:18;;;;;;;;;33.50;29.25;;;;;;;;5086564;27;62071;-82
2023/04/22 10:36:03;;;;;;;;;32.00;28.50;;;;;;;;5084001;27;61878;-79
2023/04/22 10:38:28;;;;;;;;;33.00;29.25;;;;;;;;5093458;27;61848;-76
2023/04/22 10:40:59;;;;;;;;;35.00;24.75;;;;;;;;5088986;27;61881;-74
2023/04/22 10:43:41;;;;;;;;;35.50;29.25;;;;;;;;5089359;27;62054;-75
2023/04/22 10:46:06;;;;;;;;;25.50;24.00;;;;;;;;5090280;27;62026;-74
2023/04/22 10:48:47;;;;;;;;;35.75;32.25;;;;;;;;5104255;27;62097;-74
2023/04/22 10:51:31;;;;;;;;;24.00;20.25;;;;;;;;5097920;27;62185;-75
2023/04/22 10:53:57;;;;;;;;;33.25;25.25;;;;;;;;5096842;27;61676;-74
2023/04/22 10:56:22;;;;;;;;;28.00;21.00;;;;;;;;5097523;27;61877;-75
2023/04/22 10:58:48;;;;;;;;;26.75;19.75;;;;;;;;5107158;27;61720;-75
2023/04/22 11:01:14;;;;;;;;;28.00;22.00;;;;;;;;5095903;27;62023;-76
2023/04/22 11:03:39;;;;;;;;;17.00;15.50;;;;;;;;5099721;27;62160;-76
2023/04/22 11:06:26;;;;;;;;;17.25;14.25;;;;;;;;5092514;27;61694;-79
2023/04/22 11:09:06;;;;;;;;;27.75;18.50;;;;;;;;5098684;27;62076;-73
2023/04/22 11:11:32;;;;;;;;;20.50;17.75;;;;;;;;5096240;27;62002;-73
2023/04/22 11:13:57;;;;;;;;;21.25;20.75;;;;;;;;5097518;27;62267;-77
2023/04/22 11:16:23;;;;;;;;;20.50;15.75;;;;;;;;5097588;27;61975;-76
2023/04/22 11:18:48;;;;;;;;;16.50;15.50;;;;;;;;5100022;27;61845;-74
2023/04/22 11:21:13;;;;;;;;;20.75;17.00;;;;;;;;5097305;27;62585;-74
2023/04/22 11:23:48;;;;;;;;;23.50;20.75;;;;;;;;5099166;27;61980;-75
2023/04/22 11:26:13;;;;;;;;;30.00;20.25;;;;;;;;5098389;27;61964;-77
2023/04/22 11:28:44;;;;;;;;;26.00;21.00;;;;;;;;5098642;27;61763;-77
2023/04/22 11:31:10;;;;;;;;;19.50;16.00;;;;;;;;5096325;27;62224;-78
2023/04/22 11:33:37;;;;;;;;;26.50;22.00;;;;;;;;5088799;27;63030;-77
2023/04/22 11:36:03;;;;;;;;;23.75;18.25;;;;;;;;5094108;27;62435;-76
2023/04/22 11:38:28;;;;;;;;;21.25;17.50;;;;;;;;5097308;27;62196;-79
2023/04/22 11:40:54;;;;;;;;;18.75;14.25;;;;;;;;5094432;27;63519;-77
2023/04/22 11:43:20;;;;;;;;;16.75;15.50;;;;;;;;5099558;27;62069;-77
2023/04/22 11:45:45;;;;;;;;;21.25;16.25;;;;;;;;5089487;27;61825;-73
2023/04/22 11:48:11;;;;;;;;;19.00;15.25;;;;;;;;5091390;27;61843;-74
2023/04/22 11:50:37;;;;;;;;;22.00;19.00;;;;;;;;5089266;27;62694;-81
2023/04/22 11:53:04;;;;;;;;;24.75;18.75;;;;;;;;5093276;27;61775;-78
2023/04/22 11:55:33;;;;;;;;;23.75;18.25;;;;;;;;5095684;27;62033;-79
2023/04/22 11:57:59;;;;;;;;;23.25;19.50;;;;;;;;5121006;27;62713;-78
2023/04/22 12:00:29;;;;;;;;;19.00;16.50;;;;;;;;5095344;27;62130;-76
2023/04/22 12:03:03;;;;;;;;;21.25;17.75;;;;;;;;5102454;27;61828;-77
2023/04/22 12:05:33;;;;;;;;;20.75;17.75;;;;;;;;5094910;27;62023;-77
2023/04/22 12:08:00;;;;;;;;;20.50;16.25;;;;;;;;5098936;27;62296;-74
2023/04/22 12:10:25;;;;;;;;;23.50;18.75;;;;;;;;5100570;27;63712;-74
2023/04/22 12:12:51;;;;;;;;;18.25;16.25;;;;;;;;5101936;27;62070;-74
2023/04/22 12:15:16;;;;;;;;;22.50;20.00;;;;;;;;5097708;27;62038;-74
2023/04/22 12:17:43;;;;;;;;;19.25;19.25;;;;;;;;5100868;27;62144;-74
2023/04/22 12:20:12;;;;;;;;;25.25;19.25;;;;;;;;5098722;27;61718;-74
2023/04/22 12:22:38;;;;;;;;;17.00;17.00;;;;;;;;5099375;27;62059;-74
2023/04/22 12:25:03;;;;;;;;;25.50;19.25;;;;;;;;5103808;27;62602;-73
2023/04/22 12:27:28;;;;;;;;;22.25;17.50;;;;;;;;5099585;27;61998;-74
2023/04/22 12:29:55;;;;;;;;;34.75;23.75;;;;;;;;5101776;27;63433;-74
2023/04/22 12:32:21;;;;;;;;;19.00;16.75;;;;;;;;5098806;27;61710;-74
2023/04/22 12:34:46;;;;;;;;;21.75;16.25;;;;;;;;5093846;27;62007;-74
2023/04/22 12:37:12;;;;;;;;;26.75;19.25;;;;;;;;5099670;27;61827;-73
2023/04/22 12:39:37;;;;;;;;;21.00;18.00;;;;;;;;5083679;27;63907;-73
2023/04/22 12:42:04;;;;;;;;;27.50;22.25;;;;;;;;5097592;27;61956;-74
2023/04/22 12:44:29;;;;;;;;;34.75;19.75;;;;;;;;5099785;27;62020;-74
2023/04/22 12:46:55;;;;;;;;;22.25;20.75;;;;;;;;5099101;27;62438;-74
2023/04/22 12:49:20;;;;;;;;;14.50;13.75;;;;;;;;5100067;27;62561;-76
2023/04/22 12:51:45;;;;;;;;;25.75;18.75;;;;;;;;5100790;27;61778;-77
2023/04/22 12:54:11;;;;;;;;;22.75;17.25;;;;;;;;5102422;27;62060;-76
2023/04/22 12:56:36;;;;;;;;;23.25;18.75;;;;;;;;5100684;27;62294;-77
2023/04/22 12:59:02;;;;;;;;;23.50;19.75;;;;;;;;5102004;27;62069;-77
2023/04/22 13:01:28;;;;;;;;;24.25;19.00;;;;;;;;5100676;27;62224;-73
2023/04/22 13:03:53;;;;;;;;;18.00;15.00;;;;;;;;5099615;27;62694;-77
2023/04/22 13:06:18;;;;;;;;;20.75;16.75;;;;;;;;5104553;27;62153;-77
2023/04/22 13:08:44;;;;;;;;;20.00;14.75;;;;;;;;5101587;27;61801;-77
2023/04/22 13:11:09;;;;;;;;;22.25;19.25;;;;;;;;5101477;27;62019;-82
2023/04/22 13:13:34;;;;;;;;;20.00;16.50;;;;;;;;5103614;27;61722;-75
2023/04/22 13:16:00;;;;;;;;;19.50;17.50;;;;;;;;5100784;27;61845;-75
2023/04/22 13:18:26;;;;;;;;;19.75;15.00;;;;;;;;5099452;27;61702;-75
2023/04/22 13:20:51;;;;;;;;;18.25;15.25;;;;;;;;5102315;27;61789;-75
2023/04/22 13:23:18;;;;;;;;;13.00;11.00;;;;;;;;5102487;27;61967;-75
2023/04/22 13:25:43;;;;;;;;;16.00;15.50;;;;;;;;5102249;27;61649;-75
2023/04/22 13:28:10;;;;;;;;;23.25;16.75;;;;;;;;5099397;27;62019;-74
2023/04/22 13:30:35;;;;;;;;;21.50;16.25;;;;;;;;5099871;27;61994;-75
2023/04/22 13:33:00;;;;;;;;;17.75;16.25;;;;;;;;5102096;27;61794;-78
2023/04/22 13:35:26;;;;;;;;;21.00;17.25;;;;;;;;5094187;27;61866;-75
2023/04/22 13:37:51;;;;;;;;;19.50;14.25;;;;;;;;5096440;27;64376;-75
2023/04/22 13:40:16;;;;;;;;;17.00;14.75;;;;;;;;5102344;27;61764;-75
2023/04/22 13:42:43;;;;;;;;;21.25;19.00;;;;;;;;5103997;27;61877;-75
2023/04/22 13:45:08;;;;;;;;;19.50;15.25;;;;;;;;5103333;27;62051;-76
2023/04/22 13:47:34;;;;;;;;;16.75;14.00;;;;;;;;5090147;27;63467;-75
2023/04/22 13:50:00;;;;;;;;;17.50;12.50;;;;;;;;5083366;27;62066;-75
2023/04/22 13:52:25;;;;;;;;;14.25;13.25;;;;;;;;5103792;27;61904;-75
2023/04/22 13:54:52;;;;;;;;;15.50;12.00;;;;;;;;5103190;27;61681;-75
2023/04/22 13:57:17;;;;;;;;;10.75;10.25;;;;;;;;5102562;27;61845;-75
2023/04/22 13:59:43;;;;;;;;;14.75;11.50;;;;;;;;5101536;27;61919;-75
2023/04/22 14:02:08;;;;;;;;;13.00;12.00;;;;;;;;5102859;27;61774;-75
2023/04/22 14:04:33;;;;;;;;;13.25;11.75;;;;;;;;5115470;27;61725;-75
2023/04/22 14:06:59;;;;;;;;;14.00;11.25;;;;;;;;5110169;27;64517;-75
2023/04/22 14:09:25;;;;;;;;;16.50;15.25;;;;;;;;5101970;27;61836;-75